sensor_id;sensor_type;location;lat;lon;timestamp;temperature;humidity
4429;DHT22;2227;47.810;8.810;2023-08-07T03:47:44;11.70;99.90
4429;DHT22;2227;47.810;8.810;2023-08-07T03:50:11;11.60;99.90
4429;DHT22;2227;47.810;8.810;2023-08-07T03:52:37;11.50;99.90
4429;DHT22;2227;47.810;8.810;2023-08-07T03:55:04;11.40;99.90
4429;DHT22;2227;47.810;8.810;2023-08-07T03:57:31;11.30;99.90
4429;DHT22;2227;47.810;8.810;2023-08-07T03:59:58;11.30;99.90
4429;DHT22;2227;47.810;8.810;2023-08-07T04:02:24;11.30;99.90
4429;DHT22;2227;47.810;8.810;2023-08-07T04:04:52;11.30;99.90
4429;DHT22;2227;47.810;8.810;2023-08-07T04:07:18;11.40;99.90
4429;DHT22;2227;47.810;8.810;2023-08-07T04:09:45;11.60;99.90
4429;DHT22;2227;47.810;8.810;2023-08-07T04:12:12;11.60;99.90
4429;DHT22;2227;47.810;8.810;2023-08-07T04:14:39;11.60;99.90
4429;DHT22;2227;47.810;8.810;2023-08-07T04:17:05;11.70;99.90
4429;DHT22;2227;47.810;8.810;2023-08-07T04:19:32;11.80;99.90
4429;DHT22;2227;47.810;8.810;2023-08-07T04:21:59;11.70;99.90
4429;DHT22;2227;47.810;8.810;2023-08-07T04:24:25;11.80;99.90
4429;DHT22;2227;47.810;8.810;2023-08-07T04:26:52;11.80;99.90
4429;DHT22;2227;47.810;8.810;2023-08-07T04:29:20;11.80;99.90
4429;DHT22;2227;47.810;8.810;2023-08-07T04:31:47;11.80;99.90
4429;DHT22;2227;47.810;8.810;2023-08-07T04:34:13;11.90;99.90
4429;DHT22;2227;47.810;8.810;2023-08-07T04:36:40;11.90;99.90
4429;DHT22;2227;47.810;8.810;2023-08-07T04:39:07;11.90;99.90
4429;DHT22;2227;47.810;8.810;2023-08-07T04:41:33;11.80;99.90
4429;DHT22;2227;47.810;8.810;2023-08-07T04:44:00;11.80;99.90
4429;DHT22;2227;47.810;8.810;2023-08-07T04:46:27;11.70;99.90
4429;DHT22;2227;47.810;8.810;2023-08-07T04:48:54;11.70;99.90
4429;DHT22;2227;47.810;8.810;2023-08-07T04:51:21;11.70;99.90
4429;DHT22;2227;47.810;8.810;2023-08-07T04:53:47;11.70;99.90
4429;DHT22;2227;47.810;8.810;2023-08-07T04:56:17;11.70;99.90
4429;DHT22;2227;47.810;8.810;2023-08-07T04:58:44;11.70;99.90
4429;DHT22;2227;47.810;8.810;2023-08-07T05:01:10;11.70;99.90
4429;DHT22;2227;47.810;8.810;2023-08-07T05:03:37;11.70;99.90
4429;DHT22;2227;47.810;8.810;2023-08-07T05:06:04;11.70;99.90
4429;DHT22;2227;47.810;8.810;2023-08-07T05:08:33;11.80;99.90
4429;DHT22;2227;47.810;8.810;2023-08-07T05:10:59;11.80;99.90
4429;DHT22;2227;47.810;8.810;2023-08-07T05:13:26;11.80;99.90
4429;DHT22;2227;47.810;8.810;2023-08-07T05:15:53;11.90;99.90
4429;DHT22;2227;47.810;8.810;2023-08-07T05:18:19;11.90;99.90
4429;DHT22;2227;47.810;8.810;2023-08-07T05:20:46;11.90;99.90
4429;DHT22;2227;47.810;8.810;2023-08-07T05:23:13;11.90;99.90
4429;DHT22;2227;47.810;8.810;2023-08-07T05:25:39;11.90;99.90
4429;DHT22;2227;47.810;8.810;2023-08-07T05:28:06;11.90;99.90
4429;DHT22;2227;47.810;8.810;2023-08-07T05:30:33;11.90;99.90
4429;DHT22;2227;47.810;8.810;2023-08-07T05:33:00;11.90;99.90
4429;DHT22;2227;47.810;8.810;2023-08-07T05:35:26;12.00;99.90
4429;DHT22;2227;47.810;8.810;2023-08-07T05:37:53;12.10;99.90
4429;DHT22;2227;47.810;8.810;2023-08-07T05:40:20;12.10;99.90
4429;DHT22;2227;47.810;8.810;2023-08-07T05:42:47;12.20;99.90
4429;DHT22;2227;47.810;8.810;2023-08-07T05:45:13;12.20;99.90
4429;DHT22;2227;47.810;8.810;2023-08-07T05:47:40;12.10;99.90
4429;DHT22;2227;47.810;8.810;2023-08-07T05:50:07;12.10;99.90
4429;DHT22;2227;47.810;8.810;2023-08-07T05:52:34;12.10;99.90
4429;DHT22;2227;47.810;8.810;2023-08-07T05:55:01;12.10;99.90
4429;DHT22;2227;47.810;8.810;2023-08-07T05:57:29;12.10;99.90
4429;DHT22;2227;47.810;8.810;2023-08-07T05:59:56;12.10;99.90
4429;DHT22;2227;47.810;8.810;2023-08-07T06:02:22;12.10;99.90
4429;DHT22;2227;47.810;8.810;2023-08-07T06:04:49;12.00;99.90
4429;DHT22;2227;47.810;8.810;2023-08-07T06:07:16;12.10;99.90
4429;DHT22;2227;47.810;8.810;2023-08-07T06:09:43;12.10;99.90
4429;DHT22;2227;47.810;8.810;2023-08-07T06:12:10;12.10;99.90
4429;DHT22;2227;47.810;8.810;2023-08-07T06:14:37;12.10;99.90
4429;DHT22;2227;47.810;8.810;2023-08-07T06:17:04;12.20;99.90
4429;DHT22;2227;47.810;8.810;2023-08-07T06:19:32;12.20;99.90
4429;DHT22;2227;47.810;8.810;2023-08-07T06:21:59;12.30;99.90
4429;DHT22;2227;47.810;8.810;2023-08-07T06:24:26;12.40;99.90
4429;DHT22;2227;47.810;8.810;2023-08-07T06:26:53;12.50;99.90
4429;DHT22;2227;47.810;8.810;2023-08-07T06:29:20;12.60;99.90
4429;DHT22;2227;47.810;8.810;2023-08-07T06:31:46;12.70;99.90
4429;DHT22;2227;47.810;8.810;2023-08-07T06:34:14;12.80;99.90
4429;DHT22;2227;47.810;8.810;2023-08-07T06:36:40;12.90;99.90
4429;DHT22;2227;47.810;8.810;2023-08-07T06:39:07;12.90;99.90
4429;DHT22;2227;47.810;8.810;2023-08-07T06:41:34;12.90;99.90
4429;DHT22;2227;47.810;8.810;2023-08-07T06:44:00;12.90;99.90
4429;DHT22;2227;47.810;8.810;2023-08-07T06:46:27;13.00;99.90
4429;DHT22;2227;47.810;8.810;2023-08-07T06:48:54;13.00;99.90
4429;DHT22;2227;47.810;8.810;2023-08-07T06:51:21;13.00;99.90
4429;DHT22;2227;47.810;8.810;2023-08-07T06:53:48;13.10;99.90
4429;DHT22;2227;47.810;8.810;2023-08-07T06:56:15;13.10;99.90
4429;DHT22;2227;47.810;8.810;2023-08-07T06:58:42;13.10;99.90
4429;DHT22;2227;47.810;8.810;2023-08-07T07:01:08;13.20;99.90
4429;DHT22;2227;47.810;8.810;2023-08-07T07:03:35;13.20;99.90
4429;DHT22;2227;47.810;8.810;2023-08-07T07:06:02;13.20;99.90
4429;DHT22;2227;47.810;8.810;2023-08-07T07:08:28;13.30;99.90
4429;DHT22;2227;47.810;8.810;2023-08-07T07:10:55;13.30;99.90
4429;DHT22;2227;47.810;8.810;2023-08-07T07:13:24;13.40;99.90
4429;DHT22;2227;47.810;8.810;2023-08-07T07:15:55;13.60;99.90
4429;DHT22;2227;47.810;8.810;2023-08-07T07:18:21;13.70;99.90
4429;DHT22;2227;47.810;8.810;2023-08-07T07:20:56;13.70;99.90
4429;DHT22;2227;47.810;8.810;2023-08-07T07:23:22;13.70;99.90
4429;DHT22;2227;47.810;8.810;2023-08-07T07:25:49;13.70;99.90
4429;DHT22;2227;47.810;8.810;2023-08-07T07:28:16;13.80;99.90
4429;DHT22;2227;47.810;8.810;2023-08-07T07:30:43;13.90;99.90
4429;DHT22;2227;47.810;8.810;2023-08-07T07:33:10;14.10;99.90
4429;DHT22;2227;47.810;8.810;2023-08-07T07:35:39;14.20;99.90
4429;DHT22;2227;47.810;8.810;2023-08-07T07:38:06;14.40;99.90
4429;DHT22;2227;47.810;8.810;2023-08-07T07:40:36;14.60;99.90
4429;DHT22;2227;47.810;8.810;2023-08-07T07:43:04;14.80;99.90
4429;DHT22;2227;47.810;8.810;2023-08-07T07:45:30;14.90;99.90
4429;DHT22;2227;47.810;8.810;2023-08-07T07:47:57;14.90;99.90
4429;DHT22;2227;47.810;8.810;2023-08-07T07:50:24;15.20;99.90
4429;DHT22;2227;47.810;8.810;2023-08-07T07:52:51;15.40;99.90
4429;DHT22;2227;47.810;8.810;2023-08-07T07:55:17;15.50;99.90
4429;DHT22;2227;47.810;8.810;2023-08-07T07:57:44;15.40;99.90
4429;DHT22;2227;47.810;8.810;2023-08-07T08:00:12;15.40;99.90
4429;DHT22;2227;47.810;8.810;2023-08-07T08:02:40;15.50;99.90
4429;DHT22;2227;47.810;8.810;2023-08-07T08:05:10;15.50;99.90
4429;DHT22;2227;47.810;8.810;2023-08-07T08:07:38;15.70;99.90
4429;DHT22;2227;47.810;8.810;2023-08-07T08:10:07;15.80;99.90
4429;DHT22;2227;47.810;8.810;2023-08-07T08:12:35;15.60;99.90
4429;DHT22;2227;47.810;8.810;2023-08-07T08:15:03;15.60;99.90
4429;DHT22;2227;47.810;8.810;2023-08-07T08:17:30;15.80;99.90
4429;DHT22;2227;47.810;8.810;2023-08-07T08:19:57;15.90;99.90
4429;DHT22;2227;47.810;8.810;2023-08-07T08:22:24;16.20;99.90
4429;DHT22;2227;47.810;8.810;2023-08-07T08:24:51;16.40;99.90
4429;DHT22;2227;47.810;8.810;2023-08-07T08:27:18;16.30;99.90
4429;DHT22;2227;47.810;8.810;2023-08-07T08:29:45;16.20;99.90
4429;DHT22;2227;47.810;8.810;2023-08-07T08:32:12;16.10;99.90
4429;DHT22;2227;47.810;8.810;2023-08-07T08:34:39;16.20;99.90
4429;DHT22;2227;47.810;8.810;2023-08-07T08:37:06;16.30;99.90
4429;DHT22;2227;47.810;8.810;2023-08-07T08:39:32;16.30;99.90
4429;DHT22;2227;47.810;8.810;2023-08-07T08:41:59;16.30;99.90
4429;DHT22;2227;47.810;8.810;2023-08-07T08:44:26;16.20;99.90
4429;DHT22;2227;47.810;8.810;2023-08-07T08:46:59;16.10;99.90
4429;DHT22;2227;47.810;8.810;2023-08-07T08:49:35;16.00;99.90
4429;DHT22;2227;47.810;8.810;2023-08-07T08:52:03;16.10;99.90
4429;DHT22;2227;47.810;8.810;2023-08-07T08:54:30;16.00;99.90
4429;DHT22;2227;47.810;8.810;2023-08-07T08:56:58;16.00;99.90
4429;DHT22;2227;47.810;8.810;2023-08-07T08:59:26;15.90;99.90
4429;DHT22;2227;47.810;8.810;2023-08-07T09:01:53;15.90;99.90
4429;DHT22;2227;47.810;8.810;2023-08-07T09:04:20;16.00;99.90
4429;DHT22;2227;47.810;8.810;2023-08-07T09:06:47;16.10;99.90
4429;DHT22;2227;47.810;8.810;2023-08-07T09:09:14;16.20;99.90
4429;DHT22;2227;47.810;8.810;2023-08-07T09:11:44;16.30;99.90
4429;DHT22;2227;47.810;8.810;2023-08-07T09:14:16;16.10;99.90
4429;DHT22;2227;47.810;8.810;2023-08-07T09:16:45;15.80;99.90
4429;DHT22;2227;47.810;8.810;2023-08-07T09:19:12;15.70;99.90
4429;DHT22;2227;47.810;8.810;2023-08-07T09:21:39;15.60;99.90
4429;DHT22;2227;47.810;8.810;2023-08-07T09:24:06;15.60;99.90
4429;DHT22;2227;47.810;8.810;2023-08-07T09:26:33;15.30;99.90
4429;DHT22;2227;47.810;8.810;2023-08-07T09:29:02;14.90;99.90
4429;DHT22;2227;47.810;8.810;2023-08-07T09:31:29;14.70;99.90
4429;DHT22;2227;47.810;8.810;2023-08-07T09:34:04;14.60;99.90
4429;DHT22;2227;47.810;8.810;2023-08-07T09:36:32;14.70;99.90
4429;DHT22;2227;47.810;8.810;2023-08-07T09:39:02;14.70;99.90
4429;DHT22;2227;47.810;8.810;2023-08-07T09:41:30;15.00;99.90
4429;DHT22;2227;47.810;8.810;2023-08-07T09:43:57;15.50;99.90
4429;DHT22;2227;47.810;8.810;2023-08-07T09:46:27;16.80;99.90
4429;DHT22;2227;47.810;8.810;2023-08-07T09:48:57;18.40;99.90
4429;DHT22;2227;47.810;8.810;2023-08-07T09:51:25;19.50;99.90
4429;DHT22;2227;47.810;8.810;2023-08-07T09:53:52;20.10;99.90
4429;DHT22;2227;47.810;8.810;2023-08-07T09:56:18;20.60;99.90
4429;DHT22;2227;47.810;8.810;2023-08-07T09:58:48;20.80;99.90
4429;DHT22;2227;47.810;8.810;2023-08-07T10:01:16;21.30;99.90
4429;DHT22;2227;47.810;8.810;2023-08-07T10:03:44;20.70;99.90
4429;DHT22;2227;47.810;8.810;2023-08-07T10:06:12;20.10;99.90
4429;DHT22;2227;47.810;8.810;2023-08-07T10:08:39;19.40;99.90
4429;DHT22;2227;47.810;8.810;2023-08-07T10:11:08;18.90;99.90
4429;DHT22;2227;47.810;8.810;2023-08-07T10:13:40;18.60;99.90
4429;DHT22;2227;47.810;8.810;2023-08-07T10:16:07;18.40;99.90
4429;DHT22;2227;47.810;8.810;2023-08-07T10:18:34;18.40;99.90
4429;DHT22;2227;47.810;8.810;2023-08-07T10:21:03;18.30;99.90
4429;DHT22;2227;47.810;8.810;2023-08-07T10:23:32;18.20;99.90
4429;DHT22;2227;47.810;8.810;2023-08-07T10:26:02;18.20;99.90
4429;DHT22;2227;47.810;8.810;2023-08-07T10:28:30;17.90;99.90
4429;DHT22;2227;47.810;8.810;2023-08-07T10:30:59;17.70;99.90
4429;DHT22;2227;47.810;8.810;2023-08-07T10:33:27;17.60;99.90
4429;DHT22;2227;47.810;8.810;2023-08-07T10:35:53;17.70;99.90
4429;DHT22;2227;47.810;8.810;2023-08-07T10:38:22;17.80;99.90
4429;DHT22;2227;47.810;8.810;2023-08-07T10:41:07;17.30;99.90
4429;DHT22;2227;47.810;8.810;2023-08-07T10:43:39;17.50;99.90
4429;DHT22;2227;47.810;8.810;2023-08-07T10:46:10;17.70;99.90
4429;DHT22;2227;47.810;8.810;2023-08-07T10:48:39;18.10;99.90
4429;DHT22;2227;47.810;8.810;2023-08-07T10:51:06;18.70;99.90
4429;DHT22;2227;47.810;8.810;2023-08-07T10:53:40;19.50;99.90
4429;DHT22;2227;47.810;8.810;2023-08-07T10:58:49;20.30;99.90
4429;DHT22;2227;47.810;8.810;2023-08-07T11:03:59;19.90;99.90
4429;DHT22;2227;47.810;8.810;2023-08-07T11:06:32;21.00;99.90
4429;DHT22;2227;47.810;8.810;2023-08-07T11:09:00;21.90;97.90
4429;DHT22;2227;47.810;8.810;2023-08-07T11:11:27;22.80;97.90
4429;DHT22;2227;47.810;8.810;2023-08-07T11:13:54;23.80;95.10
4429;DHT22;2227;47.810;8.810;2023-08-07T11:16:20;23.80;92.40
4429;DHT22;2227;47.810;8.810;2023-08-07T11:18:48;23.40;94.10
4429;DHT22;2227;47.810;8.810;2023-08-07T11:21:15;24.10;92.00
4429;DHT22;2227;47.810;8.810;2023-08-07T11:23:42;23.10;92.30
4429;DHT22;2227;47.810;8.810;2023-08-07T11:26:11;22.70;92.00
4429;DHT22;2227;47.810;8.810;2023-08-07T11:28:37;22.50;91.90
4429;DHT22;2227;47.810;8.810;2023-08-07T11:31:04;21.80;91.70
4429;DHT22;2227;47.810;8.810;2023-08-07T11:33:31;21.00;92.20
4429;DHT22;2227;47.810;8.810;2023-08-07T11:35:58;20.00;93.80
4429;DHT22;2227;47.810;8.810;2023-08-07T11:38:34;19.50;94.20
4429;DHT22;2227;47.810;8.810;2023-08-07T11:41:03;19.20;95.30
4429;DHT22;2227;47.810;8.810;2023-08-07T11:43:31;19.30;96.00
4429;DHT22;2227;47.810;8.810;2023-08-07T11:46:00;19.20;96.40
4429;DHT22;2227;47.810;8.810;2023-08-07T11:48:28;18.90;96.10
4429;DHT22;2227;47.810;8.810;2023-08-07T11:50:56;18.70;95.00
4429;DHT22;2227;47.810;8.810;2023-08-07T11:53:28;18.90;95.30
4429;DHT22;2227;47.810;8.810;2023-08-07T11:55:56;19.50;95.00
4429;DHT22;2227;47.810;8.810;2023-08-07T11:58:28;20.20;93.60
4429;DHT22;2227;47.810;8.810;2023-08-07T12:01:09;20.50;94.30
4429;DHT22;2227;47.810;8.810;2023-08-07T12:03:37;21.10;93.70
4429;DHT22;2227;47.810;8.810;2023-08-07T12:06:08;21.30;92.00
4429;DHT22;2227;47.810;8.810;2023-08-07T12:08:37;21.90;91.30
4429;DHT22;2227;47.810;8.810;2023-08-07T12:11:06;21.80;89.10
4429;DHT22;2227;47.810;8.810;2023-08-07T12:13:33;21.70;90.80
4429;DHT22;2227;47.810;8.810;2023-08-07T12:16:02;22.40;90.40
4429;DHT22;2227;47.810;8.810;2023-08-07T12:18:30;22.60;91.50
4429;DHT22;2227;47.810;8.810;2023-08-07T12:21:02;23.10;88.00
4429;DHT22;2227;47.810;8.810;2023-08-07T12:23:29;23.10;86.00
4429;DHT22;2227;47.810;8.810;2023-08-07T12:25:55;23.10;86.90
4429;DHT22;2227;47.810;8.810;2023-08-07T12:28:22;23.40;87.00
4429;DHT22;2227;47.810;8.810;2023-08-07T12:30:50;23.70;87.40
4429;DHT22;2227;47.810;8.810;2023-08-07T12:33:18;24.00;87.10
4429;DHT22;2227;47.810;8.810;2023-08-07T12:35:45;23.60;87.40
4429;DHT22;2227;47.810;8.810;2023-08-07T12:38:12;23.00;88.50
4429;DHT22;2227;47.810;8.810;2023-08-07T12:40:41;22.60;90.30
4429;DHT22;2227;47.810;8.810;2023-08-07T12:43:10;22.10;90.80
4429;DHT22;2227;47.810;8.810;2023-08-07T12:45:37;22.00;91.10
4429;DHT22;2227;47.810;8.810;2023-08-07T12:48:07;21.40;92.00
4429;DHT22;2227;47.810;8.810;2023-08-07T12:50:35;21.00;93.50
4429;DHT22;2227;47.810;8.810;2023-08-07T12:53:02;20.90;93.90
4429;DHT22;2227;47.810;8.810;2023-08-07T12:55:29;20.50;94.90
4429;DHT22;2227;47.810;8.810;2023-08-07T12:57:56;20.70;95.80
4429;DHT22;2227;47.810;8.810;2023-08-07T13:00:24;20.80;95.80
4429;DHT22;2227;47.810;8.810;2023-08-07T13:02:53;21.00;95.60
4429;DHT22;2227;47.810;8.810;2023-08-07T13:05:21;21.10;95.50
4429;DHT22;2227;47.810;8.810;2023-08-07T13:07:48;21.20;94.90
4429;DHT22;2227;47.810;8.810;2023-08-07T13:10:16;20.90;95.10
4429;DHT22;2227;47.810;8.810;2023-08-07T13:12:44;20.30;95.80
4429;DHT22;2227;47.810;8.810;2023-08-07T13:15:14;20.00;97.60
4429;DHT22;2227;47.810;8.810;2023-08-07T13:17:42;19.80;97.80
4429;DHT22;2227;47.810;8.810;2023-08-07T13:20:11;19.80;96.80
4429;DHT22;2227;47.810;8.810;2023-08-07T13:22:43;20.00;98.10
4429;DHT22;2227;47.810;8.810;2023-08-07T13:25:12;20.20;98.80
4429;DHT22;2227;47.810;8.810;2023-08-07T13:27:39;20.50;98.10
4429;DHT22;2227;47.810;8.810;2023-08-07T13:30:07;20.70;97.40
4429;DHT22;2227;47.810;8.810;2023-08-07T13:32:34;20.60;96.40
4429;DHT22;2227;47.810;8.810;2023-08-07T13:35:01;20.40;96.40
4429;DHT22;2227;47.810;8.810;2023-08-07T13:37:29;20.30;95.40
4429;DHT22;2227;47.810;8.810;2023-08-07T13:39:56;20.10;95.90
4429;DHT22;2227;47.810;8.810;2023-08-07T13:42:25;20.10;94.80
4429;DHT22;2227;47.810;8.810;2023-08-07T13:44:55;20.20;93.70
4429;DHT22;2227;47.810;8.810;2023-08-07T13:47:22;20.50;93.30
4429;DHT22;2227;47.810;8.810;2023-08-07T13:49:51;21.30;92.80
4429;DHT22;2227;47.810;8.810;2023-08-07T13:52:18;22.10;91.70
4429;DHT22;2227;47.810;8.810;2023-08-07T13:54:45;22.60;90.90
4429;DHT22;2227;47.810;8.810;2023-08-07T13:57:11;23.20;90.00
4429;DHT22;2227;47.810;8.810;2023-08-07T13:59:39;23.50;87.40
4429;DHT22;2227;47.810;8.810;2023-08-07T14:02:06;22.80;87.50
4429;DHT22;2227;47.810;8.810;2023-08-07T14:04:32;22.40;89.00
4429;DHT22;2227;47.810;8.810;2023-08-07T14:06:59;22.30;90.20
4429;DHT22;2227;47.810;8.810;2023-08-07T14:09:26;22.20;90.70
4429;DHT22;2227;47.810;8.810;2023-08-07T14:11:53;22.40;91.10
4429;DHT22;2227;47.810;8.810;2023-08-07T14:14:20;22.70;90.70
4429;DHT22;2227;47.810;8.810;2023-08-07T14:16:47;22.90;90.60
4429;DHT22;2227;47.810;8.810;2023-08-07T14:19:15;22.70;90.00
4429;DHT22;2227;47.810;8.810;2023-08-07T14:21:41;22.10;91.30
4429;DHT22;2227;47.810;8.810;2023-08-07T14:24:08;22.10;91.10
4429;DHT22;2227;47.810;8.810;2023-08-07T14:26:35;22.10;90.70
4429;DHT22;2227;47.810;8.810;2023-08-07T14:29:01;22.30;92.40
4429;DHT22;2227;47.810;8.810;2023-08-07T14:31:28;22.30;92.70
4429;DHT22;2227;47.810;8.810;2023-08-07T14:33:55;22.20;92.20
4429;DHT22;2227;47.810;8.810;2023-08-07T14:36:23;22.50;89.90
4429;DHT22;2227;47.810;8.810;2023-08-07T14:38:50;22.70;87.00
4429;DHT22;2227;47.810;8.810;2023-08-07T14:41:18;22.80;86.70
4429;DHT22;2227;47.810;8.810;2023-08-07T14:43:45;22.60;86.60
4429;DHT22;2227;47.810;8.810;2023-08-07T14:46:13;22.30;88.00
4429;DHT22;2227;47.810;8.810;2023-08-07T14:48:40;22.50;89.30
4429;DHT22;2227;47.810;8.810;2023-08-07T14:51:07;22.60;89.20
4429;DHT22;2227;47.810;8.810;2023-08-07T14:53:34;22.60;90.90
4429;DHT22;2227;47.810;8.810;2023-08-07T14:56:02;22.60;90.80
4429;DHT22;2227;47.810;8.810;2023-08-07T14:58:29;22.50;89.90
4429;DHT22;2227;47.810;8.810;2023-08-07T15:00:56;22.30;89.90
4429;DHT22;2227;47.810;8.810;2023-08-07T15:03:22;21.90;90.30
4429;DHT22;2227;47.810;8.810;2023-08-07T15:05:49;21.80;90.60
4429;DHT22;2227;47.810;8.810;2023-08-07T15:08:16;21.40;90.80
4429;DHT22;2227;47.810;8.810;2023-08-07T15:10:43;21.00;91.30
4429;DHT22;2227;47.810;8.810;2023-08-07T15:13:09;20.80;91.50
4429;DHT22;2227;47.810;8.810;2023-08-07T15:15:36;20.60;92.20
4429;DHT22;2227;47.810;8.810;2023-08-07T15:18:03;20.50;92.50
4429;DHT22;2227;47.810;8.810;2023-08-07T15:20:34;20.40;93.20
4429;DHT22;2227;47.810;8.810;2023-08-07T15:23:01;20.30;93.20
4429;DHT22;2227;47.810;8.810;2023-08-07T15:25:28;20.20;93.30
4429;DHT22;2227;47.810;8.810;2023-08-07T15:27:55;20.20;93.90
4429;DHT22;2227;47.810;8.810;2023-08-07T15:30:26;20.20;93.50
4429;DHT22;2227;47.810;8.810;2023-08-07T15:32:53;20.40;93.70
4429;DHT22;2227;47.810;8.810;2023-08-07T15:35:20;20.30;93.50
4429;DHT22;2227;47.810;8.810;2023-08-07T15:37:46;20.30;93.40
4429;DHT22;2227;47.810;8.810;2023-08-07T15:40:13;20.00;93.90
4429;DHT22;2227;47.810;8.810;2023-08-07T15:42:40;19.90;94.00
4429;DHT22;2227;47.810;8.810;2023-08-07T15:45:12;19.60;94.30
4429;DHT22;2227;47.810;8.810;2023-08-07T15:47:39;19.30;94.40
4429;DHT22;2227;47.810;8.810;2023-08-07T15:50:07;19.00;93.80
4429;DHT22;2227;47.810;8.810;2023-08-07T15:52:34;18.90;92.70
4429;DHT22;2227;47.810;8.810;2023-08-07T15:55:00;18.80;92.50
4429;DHT22;2227;47.810;8.810;2023-08-07T15:57:28;18.70;93.00
4429;DHT22;2227;47.810;8.810;2023-08-07T15:59:55;18.60;93.30
4429;DHT22;2227;47.810;8.810;2023-08-07T16:02:22;18.30;92.90
4429;DHT22;2227;47.810;8.810;2023-08-07T16:04:49;18.20;93.70
4429;DHT22;2227;47.810;8.810;2023-08-07T16:07:16;18.10;94.30
4429;DHT22;2227;47.810;8.810;2023-08-07T16:09:43;18.10;94.50
4429;DHT22;2227;47.810;8.810;2023-08-07T16:12:10;17.90;94.20
4429;DHT22;2227;47.810;8.810;2023-08-07T16:14:37;18.00;94.40
4429;DHT22;2227;47.810;8.810;2023-08-07T16:17:05;17.90;94.90
4429;DHT22;2227;47.810;8.810;2023-08-07T16:19:32;18.00;95.40
4429;DHT22;2227;47.810;8.810;2023-08-07T16:21:59;18.20;96.10
4429;DHT22;2227;47.810;8.810;2023-08-07T16:24:25;18.30;96.40
4429;DHT22;2227;47.810;8.810;2023-08-07T16:26:52;18.40;96.70
4429;DHT22;2227;47.810;8.810;2023-08-07T16:29:19;18.50;97.50
4429;DHT22;2227;47.810;8.810;2023-08-07T16:31:46;18.60;98.00
4429;DHT22;2227;47.810;8.810;2023-08-07T16:34:12;18.70;98.30
4429;DHT22;2227;47.810;8.810;2023-08-07T16:36:39;18.90;98.20
4429;DHT22;2227;47.810;8.810;2023-08-07T16:39:06;19.00;98.80
4429;DHT22;2227;47.810;8.810;2023-08-07T16:41:33;19.10;99.10
4429;DHT22;2227;47.810;8.810;2023-08-07T16:43:59;18.80;99.40
4429;DHT22;2227;47.810;8.810;2023-08-07T16:46:26;18.30;99.90
4429;DHT22;2227;47.810;8.810;2023-08-07T16:48:54;18.00;99.90
4429;DHT22;2227;47.810;8.810;2023-08-07T16:51:21;18.00;99.90
4429;DHT22;2227;47.810;8.810;2023-08-07T16:53:48;18.10;99.90
4429;DHT22;2227;47.810;8.810;2023-08-07T16:56:15;18.20;99.90
4429;DHT22;2227;47.810;8.810;2023-08-07T16:58:42;18.30;99.90
4429;DHT22;2227;47.810;8.810;2023-08-07T17:01:12;18.40;99.90
4429;DHT22;2227;47.810;8.810;2023-08-07T17:03:39;18.40;99.90
4429;DHT22;2227;47.810;8.810;2023-08-07T17:06:05;18.30;99.90
4429;DHT22;2227;47.810;8.810;2023-08-07T17:08:32;18.40;99.90
4429;DHT22;2227;47.810;8.810;2023-08-07T17:11:02;18.20;99.90
4429;DHT22;2227;47.810;8.810;2023-08-07T17:13:30;18.10;99.90
4429;DHT22;2227;47.810;8.810;2023-08-07T17:15:57;18.10;99.90
4429;DHT22;2227;47.810;8.810;2023-08-07T17:18:24;17.80;99.90
4429;DHT22;2227;47.810;8.810;2023-08-07T17:20:50;17.60;99.90
4429;DHT22;2227;47.810;8.810;2023-08-07T17:23:17;17.40;99.90
4429;DHT22;2227;47.810;8.810;2023-08-07T17:25:44;17.20;99.90
4429;DHT22;2227;47.810;8.810;2023-08-07T17:28:10;16.90;99.90
4429;DHT22;2227;47.810;8.810;2023-08-07T17:30:37;16.90;99.90
4429;DHT22;2227;47.810;8.810;2023-08-07T17:33:04;16.70;99.90
4429;DHT22;2227;47.810;8.810;2023-08-07T17:35:31;16.70;99.90
4429;DHT22;2227;47.810;8.810;2023-08-07T17:37:58;16.70;99.90
4429;DHT22;2227;47.810;8.810;2023-08-07T17:40:25;16.70;99.90
4429;DHT22;2227;47.810;8.810;2023-08-07T17:42:52;16.70;99.90
4429;DHT22;2227;47.810;8.810;2023-08-07T17:45:18;16.70;99.90
4429;DHT22;2227;47.810;8.810;2023-08-07T17:47:45;16.60;99.90
4429;DHT22;2227;47.810;8.810;2023-08-07T17:50:12;16.60;99.90
4429;DHT22;2227;47.810;8.810;2023-08-07T17:52:39;16.60;99.90
4429;DHT22;2227;47.810;8.810;2023-08-07T17:55:06;16.60;99.90
4429;DHT22;2227;47.810;8.810;2023-08-07T17:57:33;16.60;99.90
4429;DHT22;2227;47.810;8.810;2023-08-07T18:00:00;16.60;99.90
4429;DHT22;2227;47.810;8.810;2023-08-07T18:02:27;16.70;99.90
4429;DHT22;2227;47.810;8.810;2023-08-07T18:04:53;16.70;99.90
4429;DHT22;2227;47.810;8.810;2023-08-07T18:07:20;16.70;99.90
4429;DHT22;2227;47.810;8.810;2023-08-07T18:09:47;16.70;99.90
4429;DHT22;2227;47.810;8.810;2023-08-07T18:12:14;16.60;99.90
4429;DHT22;2227;47.810;8.810;2023-08-07T18:14:40;16.50;99.90
4429;DHT22;2227;47.810;8.810;2023-08-07T18:17:07;16.50;99.90
4429;DHT22;2227;47.810;8.810;2023-08-07T18:19:34;16.40;99.90
4429;DHT22;2227;47.810;8.810;2023-08-07T18:22:01;16.40;99.90
4429;DHT22;2227;47.810;8.810;2023-08-07T18:24:28;16.40;99.90
4429;DHT22;2227;47.810;8.810;2023-08-07T18:26:54;16.40;99.90
4429;DHT22;2227;47.810;8.810;2023-08-07T18:29:22;16.20;99.90
4429;DHT22;2227;47.810;8.810;2023-08-07T18:31:49;16.10;99.90
4429;DHT22;2227;47.810;8.810;2023-08-07T18:34:16;16.10;99.90
4429;DHT22;2227;47.810;8.810;2023-08-07T18:36:43;16.10;99.90
4429;DHT22;2227;47.810;8.810;2023-08-07T18:39:11;16.10;99.90
4429;DHT22;2227;47.810;8.810;2023-08-07T18:41:38;15.90;99.90
4429;DHT22;2227;47.810;8.810;2023-08-07T18:44:04;15.80;99.90
4429;DHT22;2227;47.810;8.810;2023-08-07T18:46:31;15.60;99.90
4429;DHT22;2227;47.810;8.810;2023-08-07T18:48:58;15.60;99.90
4429;DHT22;2227;47.810;8.810;2023-08-07T18:51:25;15.60;99.90
4429;DHT22;2227;47.810;8.810;2023-08-07T18:53:52;15.60;99.90
4429;DHT22;2227;47.810;8.810;2023-08-07T18:56:19;15.60;99.90
4429;DHT22;2227;47.810;8.810;2023-08-07T18:58:46;15.60;99.90
4429;DHT22;2227;47.810;8.810;2023-08-07T19:01:12;15.60;99.90
4429;DHT22;2227;47.810;8.810;2023-08-07T19:03:39;15.70;99.90
4429;DHT22;2227;47.810;8.810;2023-08-07T19:06:06;15.60;99.90
4429;DHT22;2227;47.810;8.810;2023-08-07T19:08:33;15.60;99.90
4429;DHT22;2227;47.810;8.810;2023-08-07T19:11:01;15.60;99.90
4429;DHT22;2227;47.810;8.810;2023-08-07T19:13:27;15.60;99.90
4429;DHT22;2227;47.810;8.810;2023-08-07T19:15:55;15.70;99.90
4429;DHT22;2227;47.810;8.810;2023-08-07T19:18:24;15.60;99.90
4429;DHT22;2227;47.810;8.810;2023-08-07T19:20:52;15.60;99.90
4429;DHT22;2227;47.810;8.810;2023-08-07T19:23:18;15.60;99.90
4429;DHT22;2227;47.810;8.810;2023-08-07T19:25:45;15.60;99.90
4429;DHT22;2227;47.810;8.810;2023-08-07T19:28:12;15.50;99.90
4429;DHT22;2227;47.810;8.810;2023-08-07T19:30:39;15.50;99.90
4429;DHT22;2227;47.810;8.810;2023-08-07T19:33:17;15.50;99.90
4429;DHT22;2227;47.810;8.810;2023-08-07T19:35:44;15.50;99.90
4429;DHT22;2227;47.810;8.810;2023-08-07T19:38:11;15.40;99.90
4429;DHT22;2227;47.810;8.810;2023-08-07T19:40:39;15.50;99.90
4429;DHT22;2227;47.810;8.810;2023-08-07T19:43:05;15.50;99.90
4429;DHT22;2227;47.810;8.810;2023-08-07T19:45:32;15.40;99.90
4429;DHT22;2227;47.810;8.810;2023-08-07T19:47:59;15.30;99.90
4429;DHT22;2227;47.810;8.810;2023-08-07T19:50:26;15.30;99.90
4429;DHT22;2227;47.810;8.810;2023-08-07T19:52:53;15.20;99.90
4429;DHT22;2227;47.810;8.810;2023-08-07T19:55:21;15.20;99.90